Francisco de Sa Carneiro Airport Porto PT
ICAO: LPPR
IATA: OPO
Category: Large
Scheduled Services: Yes

Elevation: 228 ft
TransAlt. 4000 ft.

Airport Communications:
APP:121.1
ATIS:124.3
TWR:118

LPPR Zoom In..

If you have problems with the map follow the link
https://www.worldairports.se/pages/airport.php?
ICAO=LPPR

Runways:

(A) RW 17 length 11417 ft width 148 ft
ILS 109.90 / hdg 173

(B) RW 35 length 11417 ft width 148 ft
---- / hdg 353

Location; LPPR
Day. 21 / Time. 09.00 Zulu
* QNH: 1019
* Temperature: 21° c. 69.8°f.
* Wind from: 050° Speed 05 kn.
Dewpoint: 14° c.
Visibility: 10 km or more,
No clouds below 1,500 m.
No cumulonimbus, and no significant weather
fenomena in the aerodrome or its vicinity.

LPPR 210900Z 05005KT 020V080 CAVOK 21/14 Q1019


Wind From 050°
Speed 05 kn.

 
 
jpsmedia.com for Web Design worldairports.se 2018   terms of use